sensor_id;sensor_type;location;lat;lon;timestamp;P1;durP1;ratioP1;P2;durP2;ratioP2
25449;SDS011;13371;52.080;5.624;2022-12-10T00:01:08;58.03;;;23.45;;
25449;SDS011;13371;52.080;5.624;2022-12-10T00:03:35;51.33;;;21.85;;
25449;SDS011;13371;52.080;5.624;2022-12-10T00:06:02;56.78;;;22.40;;
25449;SDS011;13371;52.080;5.624;2022-12-10T00:08:29;50.65;;;21.80;;
25449;SDS011;13371;52.080;5.624;2022-12-10T00:10:55;52.08;;;23.05;;
25449;SDS011;13371;52.080;5.624;2022-12-10T00:13:20;55.47;;;22.33;;
25449;SDS011;13371;52.080;5.624;2022-12-10T00:15:46;56.95;;;23.38;;
25449;SDS011;13371;52.080;5.624;2022-12-10T00:18:11;54.70;;;23.05;;
25449;SDS011;13371;52.080;5.624;2022-12-10T00:20:37;49.03;;;22.35;;
25449;SDS011;13371;52.080;5.624;2022-12-10T00:23:03;51.47;;;22.20;;
25449;SDS011;13371;52.080;5.624;2022-12-10T00:25:29;55.72;;;23.25;;
25449;SDS011;13371;52.080;5.624;2022-12-10T00:27:54;52.55;;;21.65;;
25449;SDS011;13371;52.080;5.624;2022-12-10T00:30:20;47.75;;;21.60;;
25449;SDS011;13371;52.080;5.624;2022-12-10T00:32:45;50.35;;;20.95;;
25449;SDS011;13371;52.080;5.624;2022-12-10T00:35:11;53.75;;;22.65;;
25449;SDS011;13371;52.080;5.624;2022-12-10T00:37:37;49.13;;;21.85;;
25449;SDS011;13371;52.080;5.624;2022-12-10T00:40:02;51.58;;;21.85;;
25449;SDS011;13371;52.080;5.624;2022-12-10T00:42:29;49.40;;;21.38;;
25449;SDS011;13371;52.080;5.624;2022-12-10T00:44:54;49.42;;;21.33;;
25449;SDS011;13371;52.080;5.624;2022-12-10T00:47:20;57.30;;;22.58;;
25449;SDS011;13371;52.080;5.624;2022-12-10T00:49:45;58.58;;;23.23;;
25449;SDS011;13371;52.080;5.624;2022-12-10T00:52:11;54.33;;;22.08;;
25449;SDS011;13371;52.080;5.624;2022-12-10T00:54:37;56.53;;;21.23;;
25449;SDS011;13371;52.080;5.624;2022-12-10T00:57:02;51.92;;;21.65;;
25449;SDS011;13371;52.080;5.624;2022-12-10T00:59:28;59.17;;;22.05;;
25449;SDS011;13371;52.080;5.624;2022-12-10T01:01:53;56.58;;;22.98;;
25449;SDS011;13371;52.080;5.624;2022-12-10T01:04:20;50.60;;;22.80;;
25449;SDS011;13371;52.080;5.624;2022-12-10T01:06:47;55.17;;;23.13;;
25449;SDS011;13371;52.080;5.624;2022-12-10T01:09:15;58.85;;;23.67;;
25449;SDS011;13371;52.080;5.624;2022-12-10T01:11:44;53.05;;;22.48;;
25449;SDS011;13371;52.080;5.624;2022-12-10T01:14:13;51.10;;;21.77;;
25449;SDS011;13371;52.080;5.624;2022-12-10T01:16:42;58.35;;;22.42;;
25449;SDS011;13371;52.080;5.624;2022-12-10T01:19:08;52.55;;;23.30;;
25449;SDS011;13371;52.080;5.624;2022-12-10T01:21:34;61.00;;;22.70;;
25449;SDS011;13371;52.080;5.624;2022-12-10T01:23:59;63.33;;;24.02;;
25449;SDS011;13371;52.080;5.624;2022-12-10T01:26:26;60.05;;;23.65;;
25449;SDS011;13371;52.080;5.624;2022-12-10T01:28:55;55.40;;;21.50;;
25449;SDS011;13371;52.080;5.624;2022-12-10T01:31:22;49.20;;;21.40;;
25449;SDS011;13371;52.080;5.624;2022-12-10T01:33:59;58.35;;;22.88;;
25449;SDS011;13371;52.080;5.624;2022-12-10T01:36:30;53.88;;;22.90;;
25449;SDS011;13371;52.080;5.624;2022-12-10T01:39:02;62.80;;;24.05;;
25449;SDS011;13371;52.080;5.624;2022-12-10T01:41:33;59.50;;;24.25;;
25449;SDS011;13371;52.080;5.624;2022-12-10T01:46:33;53.03;;;21.52;;
25449;SDS011;13371;52.080;5.624;2022-12-10T01:49:01;58.35;;;23.40;;
25449;SDS011;13371;52.080;5.624;2022-12-10T01:51:30;61.63;;;24.98;;
25449;SDS011;13371;52.080;5.624;2022-12-10T01:53:57;59.05;;;23.38;;
25449;SDS011;13371;52.080;5.624;2022-12-10T01:56:24;60.38;;;23.90;;
25449;SDS011;13371;52.080;5.624;2022-12-10T01:58:50;51.40;;;22.05;;
25449;SDS011;13371;52.080;5.624;2022-12-10T02:06:38;55.03;;;22.38;;
25449;SDS011;13371;52.080;5.624;2022-12-10T02:09:18;59.45;;;22.25;;
25449;SDS011;13371;52.080;5.624;2022-12-10T02:11:58;50.05;;;22.08;;
25449;SDS011;13371;52.080;5.624;2022-12-10T02:17:21;50.85;;;21.73;;
25449;SDS011;13371;52.080;5.624;2022-12-10T02:19:56;55.42;;;22.38;;
25449;SDS011;13371;52.080;5.624;2022-12-10T02:22:28;56.92;;;22.77;;
25449;SDS011;13371;52.080;5.624;2022-12-10T02:24:58;51.45;;;21.80;;
25449;SDS011;13371;52.080;5.624;2022-12-10T02:30:43;52.88;;;21.75;;
25449;SDS011;13371;52.080;5.624;2022-12-10T02:33:12;57.55;;;22.20;;
25449;SDS011;13371;52.080;5.624;2022-12-10T02:35:39;55.95;;;24.35;;
25449;SDS011;13371;52.080;5.624;2022-12-10T02:38:14;54.20;;;23.92;;
25449;SDS011;13371;52.080;5.624;2022-12-10T02:40:45;57.33;;;22.65;;
25449;SDS011;13371;52.080;5.624;2022-12-10T02:43:13;54.20;;;21.70;;
25449;SDS011;13371;52.080;5.624;2022-12-10T02:45:40;56.90;;;24.55;;
25449;SDS011;13371;52.080;5.624;2022-12-10T02:48:07;53.55;;;23.38;;
25449;SDS011;13371;52.080;5.624;2022-12-10T02:50:33;57.28;;;22.55;;
25449;SDS011;13371;52.080;5.624;2022-12-10T02:52:59;54.45;;;23.48;;
25449;SDS011;13371;52.080;5.624;2022-12-10T02:55:24;63.20;;;25.10;;
25449;SDS011;13371;52.080;5.624;2022-12-10T02:58:03;65.38;;;25.08;;
25449;SDS011;13371;52.080;5.624;2022-12-10T03:00:41;67.60;;;24.75;;
25449;SDS011;13371;52.080;5.624;2022-12-10T03:03:28;65.90;;;26.75;;
25449;SDS011;13371;52.080;5.624;2022-12-10T03:06:22;70.28;;;26.05;;
25449;SDS011;13371;52.080;5.624;2022-12-10T03:09:06;69.75;;;24.48;;
25449;SDS011;13371;52.080;5.624;2022-12-10T03:11:44;60.72;;;25.80;;
25449;SDS011;13371;52.080;5.624;2022-12-10T03:16:44;77.57;;;27.92;;
25449;SDS011;13371;52.080;5.624;2022-12-10T03:19:16;74.15;;;26.23;;
25449;SDS011;13371;52.080;5.624;2022-12-10T03:21:45;70.38;;;26.05;;
25449;SDS011;13371;52.080;5.624;2022-12-10T03:24:14;72.30;;;26.42;;
25449;SDS011;13371;52.080;5.624;2022-12-10T03:26:41;80.25;;;27.67;;
25449;SDS011;13371;52.080;5.624;2022-12-10T03:29:10;88.40;;;29.27;;
25449;SDS011;13371;52.080;5.624;2022-12-10T03:34:08;81.10;;;28.30;;
25449;SDS011;13371;52.080;5.624;2022-12-10T03:36:35;81.80;;;29.58;;
25449;SDS011;13371;52.080;5.624;2022-12-10T03:39:02;94.35;;;30.95;;
25449;SDS011;13371;52.080;5.624;2022-12-10T03:41:30;86.97;;;28.58;;
25449;SDS011;13371;52.080;5.624;2022-12-10T03:43:56;96.88;;;27.60;;
25449;SDS011;13371;52.080;5.624;2022-12-10T03:46:24;85.43;;;29.23;;
25449;SDS011;13371;52.080;5.624;2022-12-10T03:48:52;103.18;;;29.90;;
25449;SDS011;13371;52.080;5.624;2022-12-10T03:51:18;96.95;;;28.90;;
25449;SDS011;13371;52.080;5.624;2022-12-10T03:53:44;90.90;;;29.60;;
25449;SDS011;13371;52.080;5.624;2022-12-10T03:56:10;91.05;;;27.63;;
25449;SDS011;13371;52.080;5.624;2022-12-10T03:58:36;109.97;;;29.70;;
25449;SDS011;13371;52.080;5.624;2022-12-10T04:01:05;101.18;;;30.27;;
25449;SDS011;13371;52.080;5.624;2022-12-10T04:03:33;95.47;;;28.42;;
25449;SDS011;13371;52.080;5.624;2022-12-10T04:06:04;91.90;;;29.23;;
25449;SDS011;13371;52.080;5.624;2022-12-10T04:08:32;104.45;;;28.27;;
25449;SDS011;13371;52.080;5.624;2022-12-10T04:11:02;76.82;;;26.23;;
25449;SDS011;13371;52.080;5.624;2022-12-10T04:13:30;99.70;;;27.55;;
25449;SDS011;13371;52.080;5.624;2022-12-10T04:16:18;110.05;;;29.10;;
25449;SDS011;13371;52.080;5.624;2022-12-10T04:19:00;108.72;;;28.10;;
25449;SDS011;13371;52.080;5.624;2022-12-10T04:21:29;103.25;;;27.83;;
25449;SDS011;13371;52.080;5.624;2022-12-10T04:24:23;111.70;;;28.60;;
25449;SDS011;13371;52.080;5.624;2022-12-10T04:27:10;103.18;;;26.67;;
25449;SDS011;13371;52.080;5.624;2022-12-10T04:29:37;86.65;;;25.58;;
25449;SDS011;13371;52.080;5.624;2022-12-10T04:32:03;164.60;;;29.13;;
25449;SDS011;13371;52.080;5.624;2022-12-10T04:34:29;126.20;;;27.77;;
25449;SDS011;13371;52.080;5.624;2022-12-10T04:36:56;86.07;;;26.20;;
25449;SDS011;13371;52.080;5.624;2022-12-10T04:39:25;102.47;;;25.00;;
25449;SDS011;13371;52.080;5.624;2022-12-10T04:41:50;102.25;;;27.08;;
25449;SDS011;13371;52.080;5.624;2022-12-10T04:44:16;101.30;;;28.33;;
25449;SDS011;13371;52.080;5.624;2022-12-10T04:46:42;96.35;;;24.70;;
25449;SDS011;13371;52.080;5.624;2022-12-10T04:49:08;78.70;;;25.35;;
25449;SDS011;13371;52.080;5.624;2022-12-10T04:51:34;74.40;;;24.63;;
25449;SDS011;13371;52.080;5.624;2022-12-10T04:54:00;102.00;;;29.52;;
25449;SDS011;13371;52.080;5.624;2022-12-10T04:56:26;101.22;;;27.33;;
25449;SDS011;13371;52.080;5.624;2022-12-10T04:58:52;96.00;;;27.75;;
25449;SDS011;13371;52.080;5.624;2022-12-10T05:01:19;103.32;;;27.98;;
25449;SDS011;13371;52.080;5.624;2022-12-10T05:03:45;97.00;;;28.20;;
25449;SDS011;13371;52.080;5.624;2022-12-10T05:06:12;101.43;;;25.70;;
25449;SDS011;13371;52.080;5.624;2022-12-10T05:08:40;100.15;;;27.33;;
25449;SDS011;13371;52.080;5.624;2022-12-10T05:11:10;85.00;;;27.13;;
25449;SDS011;13371;52.080;5.624;2022-12-10T05:13:40;79.20;;;25.75;;
25449;SDS011;13371;52.080;5.624;2022-12-10T05:16:07;83.45;;;23.23;;
25449;SDS011;13371;52.080;5.624;2022-12-10T05:18:36;87.30;;;23.75;;
25449;SDS011;13371;52.080;5.624;2022-12-10T05:21:03;94.90;;;24.15;;
25449;SDS011;13371;52.080;5.624;2022-12-10T05:23:31;98.00;;;24.52;;
25449;SDS011;13371;52.080;5.624;2022-12-10T05:28:31;83.90;;;24.02;;
25449;SDS011;13371;52.080;5.624;2022-12-10T05:31:01;82.80;;;25.63;;
25449;SDS011;13371;52.080;5.624;2022-12-10T05:33:27;94.47;;;26.30;;
25449;SDS011;13371;52.080;5.624;2022-12-10T05:38:19;73.85;;;24.90;;
25449;SDS011;13371;52.080;5.624;2022-12-10T05:40:44;96.03;;;25.42;;
25449;SDS011;13371;52.080;5.624;2022-12-10T05:43:10;102.22;;;24.48;;
25449;SDS011;13371;52.080;5.624;2022-12-10T05:45:36;95.53;;;24.95;;
25449;SDS011;13371;52.080;5.624;2022-12-10T05:48:01;87.55;;;24.48;;
25449;SDS011;13371;52.080;5.624;2022-12-10T05:50:27;88.05;;;25.17;;
25449;SDS011;13371;52.080;5.624;2022-12-10T05:52:52;105.40;;;26.23;;
25449;SDS011;13371;52.080;5.624;2022-12-10T05:55:18;92.00;;;26.90;;
25449;SDS011;13371;52.080;5.624;2022-12-10T05:57:44;94.03;;;24.77;;
25449;SDS011;13371;52.080;5.624;2022-12-10T06:00:09;88.80;;;23.75;;
25449;SDS011;13371;52.080;5.624;2022-12-10T06:02:36;102.38;;;27.02;;
25449;SDS011;13371;52.080;5.624;2022-12-10T06:05:01;86.25;;;25.65;;
25449;SDS011;13371;52.080;5.624;2022-12-10T06:07:27;77.72;;;22.77;;
25449;SDS011;13371;52.080;5.624;2022-12-10T06:09:54;96.13;;;27.27;;
25449;SDS011;13371;52.080;5.624;2022-12-10T06:12:20;134.65;;;30.40;;
25449;SDS011;13371;52.080;5.624;2022-12-10T06:14:46;78.78;;;23.92;;
25449;SDS011;13371;52.080;5.624;2022-12-10T06:17:12;89.70;;;25.15;;
25449;SDS011;13371;52.080;5.624;2022-12-10T06:19:37;112.03;;;28.80;;
25449;SDS011;13371;52.080;5.624;2022-12-10T06:22:03;82.95;;;26.25;;
25449;SDS011;13371;52.080;5.624;2022-12-10T06:24:28;106.85;;;27.85;;
25449;SDS011;13371;52.080;5.624;2022-12-10T06:26:54;87.53;;;26.65;;
25449;SDS011;13371;52.080;5.624;2022-12-10T06:29:20;108.43;;;29.13;;
25449;SDS011;13371;52.080;5.624;2022-12-10T06:31:45;124.32;;;28.33;;
25449;SDS011;13371;52.080;5.624;2022-12-10T06:34:11;91.07;;;21.88;;
25449;SDS011;13371;52.080;5.624;2022-12-10T06:36:36;97.63;;;26.98;;
25449;SDS011;13371;52.080;5.624;2022-12-10T06:39:02;116.68;;;26.70;;
25449;SDS011;13371;52.080;5.624;2022-12-10T06:41:28;82.03;;;22.60;;
25449;SDS011;13371;52.080;5.624;2022-12-10T06:43:54;91.57;;;20.55;;
25449;SDS011;13371;52.080;5.624;2022-12-10T06:46:23;91.55;;;26.45;;
25449;SDS011;13371;52.080;5.624;2022-12-10T06:48:49;120.20;;;27.63;;
25449;SDS011;13371;52.080;5.624;2022-12-10T06:51:15;118.35;;;28.13;;
25449;SDS011;13371;52.080;5.624;2022-12-10T06:53:42;88.45;;;27.88;;
25449;SDS011;13371;52.080;5.624;2022-12-10T06:56:15;110.05;;;28.33;;
25449;SDS011;13371;52.080;5.624;2022-12-10T06:58:43;125.00;;;29.02;;
25449;SDS011;13371;52.080;5.624;2022-12-10T07:01:10;94.63;;;26.25;;
25449;SDS011;13371;52.080;5.624;2022-12-10T07:03:37;79.50;;;26.23;;
25449;SDS011;13371;52.080;5.624;2022-12-10T07:06:03;89.55;;;27.13;;
25449;SDS011;13371;52.080;5.624;2022-12-10T07:08:30;119.32;;;27.55;;
25449;SDS011;13371;52.080;5.624;2022-12-10T07:10:55;75.03;;;25.33;;
25449;SDS011;13371;52.080;5.624;2022-12-10T07:13:22;80.20;;;25.00;;
25449;SDS011;13371;52.080;5.624;2022-12-10T07:15:47;79.30;;;25.35;;
25449;SDS011;13371;52.080;5.624;2022-12-10T07:18:13;77.93;;;24.58;;
25449;SDS011;13371;52.080;5.624;2022-12-10T07:20:39;97.47;;;25.48;;
25449;SDS011;13371;52.080;5.624;2022-12-10T07:23:04;103.85;;;26.52;;
25449;SDS011;13371;52.080;5.624;2022-12-10T07:25:30;119.88;;;28.13;;
25449;SDS011;13371;52.080;5.624;2022-12-10T07:27:56;90.22;;;27.60;;
25449;SDS011;13371;52.080;5.624;2022-12-10T07:30:22;90.18;;;27.27;;
25449;SDS011;13371;52.080;5.624;2022-12-10T07:32:48;90.32;;;27.65;;
25449;SDS011;13371;52.080;5.624;2022-12-10T07:35:13;95.35;;;27.35;;
25449;SDS011;13371;52.080;5.624;2022-12-10T07:37:39;85.40;;;25.45;;
25449;SDS011;13371;52.080;5.624;2022-12-10T07:40:04;106.45;;;30.02;;
25449;SDS011;13371;52.080;5.624;2022-12-10T07:42:30;88.13;;;28.38;;
25449;SDS011;13371;52.080;5.624;2022-12-10T07:44:56;84.88;;;27.55;;
25449;SDS011;13371;52.080;5.624;2022-12-10T07:47:21;76.35;;;24.00;;
25449;SDS011;13371;52.080;5.624;2022-12-10T07:49:47;91.15;;;27.05;;
25449;SDS011;13371;52.080;5.624;2022-12-10T07:52:13;117.65;;;29.33;;
25449;SDS011;13371;52.080;5.624;2022-12-10T07:54:38;56.95;;;19.92;;
25449;SDS011;13371;52.080;5.624;2022-12-10T07:57:04;80.18;;;26.20;;
25449;SDS011;13371;52.080;5.624;2022-12-10T07:59:29;89.32;;;27.75;;
25449;SDS011;13371;52.080;5.624;2022-12-10T08:01:55;80.32;;;23.20;;
25449;SDS011;13371;52.080;5.624;2022-12-10T08:04:22;85.60;;;26.00;;
25449;SDS011;13371;52.080;5.624;2022-12-10T08:06:47;72.75;;;25.23;;
25449;SDS011;13371;52.080;5.624;2022-12-10T08:09:13;88.20;;;25.65;;
25449;SDS011;13371;52.080;5.624;2022-12-10T08:11:39;80.03;;;24.65;;
25449;SDS011;13371;52.080;5.624;2022-12-10T08:14:04;74.30;;;23.92;;
25449;SDS011;13371;52.080;5.624;2022-12-10T08:16:30;82.68;;;25.92;;
25449;SDS011;13371;52.080;5.624;2022-12-10T08:18:56;85.82;;;25.70;;
25449;SDS011;13371;52.080;5.624;2022-12-10T08:21:24;71.13;;;21.40;;
25449;SDS011;13371;52.080;5.624;2022-12-10T08:23:52;76.10;;;24.08;;
25449;SDS011;13371;52.080;5.624;2022-12-10T08:26:20;76.38;;;24.58;;
25449;SDS011;13371;52.080;5.624;2022-12-10T08:28:48;80.55;;;27.67;;
25449;SDS011;13371;52.080;5.624;2022-12-10T08:31:15;98.95;;;27.15;;
25449;SDS011;13371;52.080;5.624;2022-12-10T08:33:42;82.30;;;25.13;;
25449;SDS011;13371;52.080;5.624;2022-12-10T08:36:08;76.32;;;25.40;;
25449;SDS011;13371;52.080;5.624;2022-12-10T08:38:36;90.30;;;24.95;;
25449;SDS011;13371;52.080;5.624;2022-12-10T08:41:09;90.40;;;26.10;;
25449;SDS011;13371;52.080;5.624;2022-12-10T08:43:42;75.90;;;24.65;;
25449;SDS011;13371;52.080;5.624;2022-12-10T08:46:09;93.97;;;27.80;;
25449;SDS011;13371;52.080;5.624;2022-12-10T08:48:36;97.22;;;28.17;;
25449;SDS011;13371;52.080;5.624;2022-12-10T08:51:03;115.47;;;30.33;;
25449;SDS011;13371;52.080;5.624;2022-12-10T08:53:30;105.55;;;28.90;;
25449;SDS011;13371;52.080;5.624;2022-12-10T08:55:56;137.80;;;30.88;;
25449;SDS011;13371;52.080;5.624;2022-12-10T08:58:21;108.10;;;29.95;;
25449;SDS011;13371;52.080;5.624;2022-12-10T09:00:47;93.50;;;28.58;;
25449;SDS011;13371;52.080;5.624;2022-12-10T09:03:14;97.15;;;27.30;;
25449;SDS011;13371;52.080;5.624;2022-12-10T09:05:40;101.75;;;28.90;;
25449;SDS011;13371;52.080;5.624;2022-12-10T09:08:06;111.82;;;27.63;;
25449;SDS011;13371;52.080;5.624;2022-12-10T09:10:32;104.28;;;28.60;;
25449;SDS011;13371;52.080;5.624;2022-12-10T09:12:57;102.22;;;27.85;;
25449;SDS011;13371;52.080;5.624;2022-12-10T09:15:23;84.05;;;22.77;;
25449;SDS011;13371;52.080;5.624;2022-12-10T09:17:49;89.25;;;24.65;;
25449;SDS011;13371;52.080;5.624;2022-12-10T09:20:14;93.85;;;27.67;;
25449;SDS011;13371;52.080;5.624;2022-12-10T09:22:40;106.32;;;28.48;;
25449;SDS011;13371;52.080;5.624;2022-12-10T09:25:06;102.10;;;27.60;;
25449;SDS011;13371;52.080;5.624;2022-12-10T09:27:35;109.18;;;28.58;;
25449;SDS011;13371;52.080;5.624;2022-12-10T09:30:02;95.28;;;28.02;;
25449;SDS011;13371;52.080;5.624;2022-12-10T09:32:28;98.53;;;28.13;;
25449;SDS011;13371;52.080;5.624;2022-12-10T09:34:54;85.80;;;24.88;;
25449;SDS011;13371;52.080;5.624;2022-12-10T09:37:19;86.78;;;23.38;;
25449;SDS011;13371;52.080;5.624;2022-12-10T09:39:45;84.60;;;24.05;;
25449;SDS011;13371;52.080;5.624;2022-12-10T09:45:18;115.97;;;24.30;;
25449;SDS011;13371;52.080;5.624;2022-12-10T09:48:01;117.32;;;26.80;;
25449;SDS011;13371;52.080;5.624;2022-12-10T09:50:36;91.85;;;26.25;;
25449;SDS011;13371;52.080;5.624;2022-12-10T09:53:26;106.32;;;25.80;;
25449;SDS011;13371;52.080;5.624;2022-12-10T09:55:55;93.15;;;27.77;;
25449;SDS011;13371;52.080;5.624;2022-12-10T09:58:23;98.72;;;26.00;;
25449;SDS011;13371;52.080;5.624;2022-12-10T10:00:51;83.78;;;23.85;;
25449;SDS011;13371;52.080;5.624;2022-12-10T10:03:22;74.63;;;23.05;;
25449;SDS011;13371;52.080;5.624;2022-12-10T10:05:48;83.18;;;23.38;;
25449;SDS011;13371;52.080;5.624;2022-12-10T10:10:44;91.15;;;23.85;;
25449;SDS011;13371;52.080;5.624;2022-12-10T10:13:12;79.95;;;23.13;;
25449;SDS011;13371;52.080;5.624;2022-12-10T10:15:53;80.07;;;23.88;;
25449;SDS011;13371;52.080;5.624;2022-12-10T10:18:38;78.97;;;24.00;;
25449;SDS011;13371;52.080;5.624;2022-12-10T10:21:12;72.15;;;20.52;;
25449;SDS011;13371;52.080;5.624;2022-12-10T10:23:48;75.13;;;20.98;;
25449;SDS011;13371;52.080;5.624;2022-12-10T10:26:14;84.43;;;22.20;;
25449;SDS011;13371;52.080;5.624;2022-12-10T10:28:40;79.25;;;21.00;;
25449;SDS011;13371;52.080;5.624;2022-12-10T10:31:22;71.15;;;22.27;;
25449;SDS011;13371;52.080;5.624;2022-12-10T10:33:54;84.22;;;21.90;;
25449;SDS011;13371;52.080;5.624;2022-12-10T10:36:23;74.63;;;21.13;;
25449;SDS011;13371;52.080;5.624;2022-12-10T10:38:50;81.82;;;22.08;;
25449;SDS011;13371;52.080;5.624;2022-12-10T10:41:16;70.43;;;20.40;;
25449;SDS011;13371;52.080;5.624;2022-12-10T10:43:42;79.13;;;20.15;;
25449;SDS011;13371;52.080;5.624;2022-12-10T10:46:22;68.55;;;19.45;;
25449;SDS011;13371;52.080;5.624;2022-12-10T10:48:49;74.05;;;20.08;;
25449;SDS011;13371;52.080;5.624;2022-12-10T10:51:17;74.40;;;20.90;;
25449;SDS011;13371;52.080;5.624;2022-12-10T10:53:51;82.65;;;20.80;;
25449;SDS011;13371;52.080;5.624;2022-12-10T10:56:20;87.60;;;23.60;;
25449;SDS011;13371;52.080;5.624;2022-12-10T11:01:21;83.28;;;21.13;;
25449;SDS011;13371;52.080;5.624;2022-12-10T11:03:53;98.22;;;24.02;;
25449;SDS011;13371;52.080;5.624;2022-12-10T11:06:22;87.57;;;21.35;;
25449;SDS011;13371;52.080;5.624;2022-12-10T11:08:48;87.93;;;22.15;;
25449;SDS011;13371;52.080;5.624;2022-12-10T11:11:22;74.95;;;23.77;;
25449;SDS011;13371;52.080;5.624;2022-12-10T11:14:14;87.25;;;21.58;;
25449;SDS011;13371;52.080;5.624;2022-12-10T11:16:45;72.47;;;18.70;;
25449;SDS011;13371;52.080;5.624;2022-12-10T11:19:18;63.65;;;18.48;;
25449;SDS011;13371;52.080;5.624;2022-12-10T11:21:46;72.88;;;18.77;;
25449;SDS011;13371;52.080;5.624;2022-12-10T11:24:12;75.65;;;20.85;;
25449;SDS011;13371;52.080;5.624;2022-12-10T11:29:27;69.80;;;17.45;;
25449;SDS011;13371;52.080;5.624;2022-12-10T11:34:38;65.10;;;18.45;;
25449;SDS011;13371;52.080;5.624;2022-12-10T11:37:32;93.90;;;21.40;;
25449;SDS011;13371;52.080;5.624;2022-12-10T11:40:06;69.45;;;19.65;;
25449;SDS011;13371;52.080;5.624;2022-12-10T11:42:54;91.25;;;19.60;;
25449;SDS011;13371;52.080;5.624;2022-12-10T11:45:33;72.47;;;20.73;;
25449;SDS011;13371;52.080;5.624;2022-12-10T11:56:34;65.43;;;19.92;;
25449;SDS011;13371;52.080;5.624;2022-12-10T12:15:31;68.93;;;18.38;;
25449;SDS011;13371;52.080;5.624;2022-12-10T12:21:27;73.50;;;19.92;;
25449;SDS011;13371;52.080;5.624;2022-12-10T12:26:29;48.30;;;15.20;;
25449;SDS011;13371;52.080;5.624;2022-12-10T12:28:59;71.18;;;16.50;;
25449;SDS011;13371;52.080;5.624;2022-12-10T12:31:31;70.20;;;20.13;;
25449;SDS011;13371;52.080;5.624;2022-12-10T12:34:17;70.60;;;21.02;;
25449;SDS011;13371;52.080;5.624;2022-12-10T12:39:24;82.13;;;19.13;;
25449;SDS011;13371;52.080;5.624;2022-12-10T12:42:09;63.38;;;20.05;;
25449;SDS011;13371;52.080;5.624;2022-12-10T12:44:56;67.90;;;18.95;;
25449;SDS011;13371;52.080;5.624;2022-12-10T12:47:39;67.25;;;21.45;;
25449;SDS011;13371;52.080;5.624;2022-12-10T12:53:02;74.35;;;22.42;;
25449;SDS011;13371;52.080;5.624;2022-12-10T13:00:45;79.15;;;22.35;;
25449;SDS011;13371;52.080;5.624;2022-12-10T13:06:17;68.88;;;20.52;;
25449;SDS011;13371;52.080;5.624;2022-12-10T13:08:53;62.38;;;20.13;;
25449;SDS011;13371;52.080;5.624;2022-12-10T13:11:32;78.32;;;19.55;;
25449;SDS011;13371;52.080;5.624;2022-12-10T13:35:21;61.45;;;20.65;;
25449;SDS011;13371;52.080;5.624;2022-12-10T13:42:44;57.47;;;18.55;;
25449;SDS011;13371;52.080;5.624;2022-12-10T13:45:30;46.75;;;14.88;;
25449;SDS011;13371;52.080;5.624;2022-12-10T13:48:19;67.55;;;19.58;;
25449;SDS011;13371;52.080;5.624;2022-12-10T13:51:03;56.55;;;20.08;;
25449;SDS011;13371;52.080;5.624;2022-12-10T13:56:41;70.78;;;19.42;;
25449;SDS011;13371;52.080;5.624;2022-12-10T13:59:26;75.25;;;20.08;;
25449;SDS011;13371;52.080;5.624;2022-12-10T14:07:18;57.03;;;19.70;;
25449;SDS011;13371;52.080;5.624;2022-12-10T14:09:46;53.75;;;18.95;;
25449;SDS011;13371;52.080;5.624;2022-12-10T14:12:24;78.13;;;20.48;;
25449;SDS011;13371;52.080;5.624;2022-12-10T14:14:58;79.88;;;20.17;;
25449;SDS011;13371;52.080;5.624;2022-12-10T14:17:39;72.18;;;21.02;;
25449;SDS011;13371;52.080;5.624;2022-12-10T14:20:07;63.50;;;21.17;;
25449;SDS011;13371;52.080;5.624;2022-12-10T14:22:43;75.33;;;19.87;;
25449;SDS011;13371;52.080;5.624;2022-12-10T14:25:15;64.68;;;20.60;;
25449;SDS011;13371;52.080;5.624;2022-12-10T14:27:46;58.97;;;18.75;;
25449;SDS011;13371;52.080;5.624;2022-12-10T14:30:18;67.25;;;20.70;;
25449;SDS011;13371;52.080;5.624;2022-12-10T14:32:48;61.95;;;20.73;;
25449;SDS011;13371;52.080;5.624;2022-12-10T14:35:16;68.30;;;19.83;;
25449;SDS011;13371;52.080;5.624;2022-12-10T14:37:45;63.38;;;20.77;;
25449;SDS011;13371;52.080;5.624;2022-12-10T14:40:21;58.15;;;19.95;;
25449;SDS011;13371;52.080;5.624;2022-12-10T14:42:49;58.47;;;19.40;;
25449;SDS011;13371;52.080;5.624;2022-12-10T14:45:20;68.20;;;18.85;;
25449;SDS011;13371;52.080;5.624;2022-12-10T14:47:46;55.08;;;18.00;;
25449;SDS011;13371;52.080;5.624;2022-12-10T14:50:14;57.25;;;19.92;;
25449;SDS011;13371;52.080;5.624;2022-12-10T14:52:42;68.78;;;20.33;;
25449;SDS011;13371;52.080;5.624;2022-12-10T14:55:14;76.82;;;21.08;;
25449;SDS011;13371;52.080;5.624;2022-12-10T14:57:42;68.90;;;20.60;;
25449;SDS011;13371;52.080;5.624;2022-12-10T15:02:39;61.47;;;20.85;;
25449;SDS011;13371;52.080;5.624;2022-12-10T15:05:18;59.03;;;19.88;;
25449;SDS011;13371;52.080;5.624;2022-12-10T15:07:54;50.42;;;18.48;;
25449;SDS011;13371;52.080;5.624;2022-12-10T15:10:26;57.33;;;17.42;;
25449;SDS011;13371;52.080;5.624;2022-12-10T15:12:57;51.78;;;16.00;;
25449;SDS011;13371;52.080;5.624;2022-12-10T15:18:09;55.42;;;17.73;;
25449;SDS011;13371;52.080;5.624;2022-12-10T15:20:38;57.58;;;16.83;;
25449;SDS011;13371;52.080;5.624;2022-12-10T15:23:17;65.35;;;16.25;;
25449;SDS011;13371;52.080;5.624;2022-12-10T15:26:32;66.32;;;18.33;;
25449;SDS011;13371;52.080;5.624;2022-12-10T15:28:39;57.85;;;19.05;;
25449;SDS011;13371;52.080;5.624;2022-12-10T15:33:38;63.78;;;17.90;;
25449;SDS011;13371;52.080;5.624;2022-12-10T15:36:04;60.75;;;17.75;;
25449;SDS011;13371;52.080;5.624;2022-12-10T15:38:30;54.45;;;18.27;;
25449;SDS011;13371;52.080;5.624;2022-12-10T15:41:20;61.92;;;18.52;;
25449;SDS011;13371;52.080;5.624;2022-12-10T15:44:03;54.80;;;18.05;;
25449;SDS011;13371;52.080;5.624;2022-12-10T15:46:31;59.67;;;19.65;;
25449;SDS011;13371;52.080;5.624;2022-12-10T15:48:57;66.25;;;19.02;;
25449;SDS011;13371;52.080;5.624;2022-12-10T15:51:23;63.55;;;18.35;;
25449;SDS011;13371;52.080;5.624;2022-12-10T15:53:49;68.85;;;21.25;;
25449;SDS011;13371;52.080;5.624;2022-12-10T15:56:15;53.83;;;17.35;;
25449;SDS011;13371;52.080;5.624;2022-12-10T15:58:41;64.45;;;19.42;;
25449;SDS011;13371;52.080;5.624;2022-12-10T16:01:08;65.13;;;19.73;;
25449;SDS011;13371;52.080;5.624;2022-12-10T16:03:38;68.35;;;20.50;;
25449;SDS011;13371;52.080;5.624;2022-12-10T16:06:06;73.18;;;21.15;;
25449;SDS011;13371;52.080;5.624;2022-12-10T16:08:32;59.97;;;19.27;;
25449;SDS011;13371;52.080;5.624;2022-12-10T16:11:02;57.30;;;18.38;;
25449;SDS011;13371;52.080;5.624;2022-12-10T16:13:47;80.75;;;19.20;;
25449;SDS011;13371;52.080;5.624;2022-12-10T16:16:15;61.00;;;17.83;;
25449;SDS011;13371;52.080;5.624;2022-12-10T16:18:42;72.72;;;20.70;;
25449;SDS011;13371;52.080;5.624;2022-12-10T16:21:08;72.80;;;19.08;;
25449;SDS011;13371;52.080;5.624;2022-12-10T16:23:35;60.22;;;19.25;;
25449;SDS011;13371;52.080;5.624;2022-12-10T16:26:02;68.07;;;19.73;;
25449;SDS011;13371;52.080;5.624;2022-12-10T16:28:32;78.53;;;20.27;;
25449;SDS011;13371;52.080;5.624;2022-12-10T16:30:58;69.93;;;21.58;;
25449;SDS011;13371;52.080;5.624;2022-12-10T16:33:25;73.55;;;21.40;;
25449;SDS011;13371;52.080;5.624;2022-12-10T16:35:52;80.93;;;21.80;;